sensor_id;sensor_type;location;lat;lon;timestamp;temperature;humidity
11848;DHT22;5983;49.966;8.052;2022-07-22T00:02:24;20.40;99.90
11848;DHT22;5983;49.966;8.052;2022-07-22T00:04:51;20.40;99.90
11848;DHT22;5983;49.966;8.052;2022-07-22T00:07:18;20.40;99.90
11848;DHT22;5983;49.966;8.052;2022-07-22T00:09:45;20.40;99.90
11848;DHT22;5983;49.966;8.052;2022-07-22T00:12:12;20.30;99.90
11848;DHT22;5983;49.966;8.052;2022-07-22T00:14:39;20.30;99.90
11848;DHT22;5983;49.966;8.052;2022-07-22T00:17:06;20.30;99.90
11848;DHT22;5983;49.966;8.052;2022-07-22T00:19:35;20.30;99.90
11848;DHT22;5983;49.966;8.052;2022-07-22T00:22:02;20.30;99.90
11848;DHT22;5983;49.966;8.052;2022-07-22T00:24:30;20.20;99.90
11848;DHT22;5983;49.966;8.052;2022-07-22T00:26:57;20.20;99.90
11848;DHT22;5983;49.966;8.052;2022-07-22T00:29:23;20.20;99.90
11848;DHT22;5983;49.966;8.052;2022-07-22T00:31:50;20.20;99.90
11848;DHT22;5983;49.966;8.052;2022-07-22T00:34:17;20.20;99.90
11848;DHT22;5983;49.966;8.052;2022-07-22T00:36:46;20.20;99.90
11848;DHT22;5983;49.966;8.052;2022-07-22T00:39:13;20.20;99.90
11848;DHT22;5983;49.966;8.052;2022-07-22T00:41:40;20.10;99.90
11848;DHT22;5983;49.966;8.052;2022-07-22T00:44:09;20.10;99.90
11848;DHT22;5983;49.966;8.052;2022-07-22T00:46:37;20.10;99.90
11848;DHT22;5983;49.966;8.052;2022-07-22T00:49:05;20.10;99.90
11848;DHT22;5983;49.966;8.052;2022-07-22T00:51:34;20.10;99.90
11848;DHT22;5983;49.966;8.052;2022-07-22T00:54:04;20.00;99.90
11848;DHT22;5983;49.966;8.052;2022-07-22T00:56:31;20.00;99.90
11848;DHT22;5983;49.966;8.052;2022-07-22T00:59:01;20.00;99.90
11848;DHT22;5983;49.966;8.052;2022-07-22T01:01:31;20.00;99.90
11848;DHT22;5983;49.966;8.052;2022-07-22T01:03:58;20.00;99.90
11848;DHT22;5983;49.966;8.052;2022-07-22T01:06:25;19.90;99.90
11848;DHT22;5983;49.966;8.052;2022-07-22T01:08:54;19.90;99.90
11848;DHT22;5983;49.966;8.052;2022-07-22T01:11:23;19.90;99.90
11848;DHT22;5983;49.966;8.052;2022-07-22T01:13:51;19.90;99.90
11848;DHT22;5983;49.966;8.052;2022-07-22T01:16:19;19.80;99.90
11848;DHT22;5983;49.966;8.052;2022-07-22T01:18:46;19.80;99.90
11848;DHT22;5983;49.966;8.052;2022-07-22T01:21:15;19.70;99.90
11848;DHT22;5983;49.966;8.052;2022-07-22T01:23:43;19.60;99.90
11848;DHT22;5983;49.966;8.052;2022-07-22T01:26:11;19.50;99.90
11848;DHT22;5983;49.966;8.052;2022-07-22T01:28:39;19.40;99.90
11848;DHT22;5983;49.966;8.052;2022-07-22T01:31:06;19.40;99.90
11848;DHT22;5983;49.966;8.052;2022-07-22T01:33:34;19.40;99.90
11848;DHT22;5983;49.966;8.052;2022-07-22T01:36:02;19.30;99.90
11848;DHT22;5983;49.966;8.052;2022-07-22T01:38:31;19.30;99.90
11848;DHT22;5983;49.966;8.052;2022-07-22T01:40:58;19.30;99.90
11848;DHT22;5983;49.966;8.052;2022-07-22T01:43:25;19.30;99.90
11848;DHT22;5983;49.966;8.052;2022-07-22T01:45:53;19.30;99.90
11848;DHT22;5983;49.966;8.052;2022-07-22T01:48:21;19.30;99.90
11848;DHT22;5983;49.966;8.052;2022-07-22T01:50:49;19.20;99.90
11848;DHT22;5983;49.966;8.052;2022-07-22T01:53:16;19.10;99.90
11848;DHT22;5983;49.966;8.052;2022-07-22T01:55:45;19.10;99.90
11848;DHT22;5983;49.966;8.052;2022-07-22T01:58:12;19.10;99.90
11848;DHT22;5983;49.966;8.052;2022-07-22T02:00:39;19.10;99.90
11848;DHT22;5983;49.966;8.052;2022-07-22T02:03:06;19.10;99.90
11848;DHT22;5983;49.966;8.052;2022-07-22T02:05:34;19.10;99.90
11848;DHT22;5983;49.966;8.052;2022-07-22T02:08:01;19.20;99.90
11848;DHT22;5983;49.966;8.052;2022-07-22T02:10:29;19.20;99.90
11848;DHT22;5983;49.966;8.052;2022-07-22T02:12:58;19.20;99.90
11848;DHT22;5983;49.966;8.052;2022-07-22T02:15:25;19.10;99.90
11848;DHT22;5983;49.966;8.052;2022-07-22T02:17:52;19.10;99.90
11848;DHT22;5983;49.966;8.052;2022-07-22T02:20:20;19.10;99.90
11848;DHT22;5983;49.966;8.052;2022-07-22T02:22:47;19.10;99.90
11848;DHT22;5983;49.966;8.052;2022-07-22T02:25:15;19.10;99.90
11848;DHT22;5983;49.966;8.052;2022-07-22T02:27:42;19.20;99.90
11848;DHT22;5983;49.966;8.052;2022-07-22T02:30:12;19.20;99.90
11848;DHT22;5983;49.966;8.052;2022-07-22T02:32:39;19.10;99.90
11848;DHT22;5983;49.966;8.052;2022-07-22T02:35:07;19.10;99.90
11848;DHT22;5983;49.966;8.052;2022-07-22T02:37:34;19.20;99.90
11848;DHT22;5983;49.966;8.052;2022-07-22T02:40:03;19.20;99.90
11848;DHT22;5983;49.966;8.052;2022-07-22T02:42:31;19.20;99.90
11848;DHT22;5983;49.966;8.052;2022-07-22T02:44:58;19.20;99.90
11848;DHT22;5983;49.966;8.052;2022-07-22T02:47:27;19.20;99.90
11848;DHT22;5983;49.966;8.052;2022-07-22T02:49:53;19.20;99.90
11848;DHT22;5983;49.966;8.052;2022-07-22T02:52:20;19.20;99.90
11848;DHT22;5983;49.966;8.052;2022-07-22T02:54:47;19.30;99.90
11848;DHT22;5983;49.966;8.052;2022-07-22T02:57:15;19.30;99.90
11848;DHT22;5983;49.966;8.052;2022-07-22T02:59:42;19.40;99.90
11848;DHT22;5983;49.966;8.052;2022-07-22T03:02:09;19.40;99.90
11848;DHT22;5983;49.966;8.052;2022-07-22T03:04:37;19.40;99.90
11848;DHT22;5983;49.966;8.052;2022-07-22T03:07:04;19.40;99.90
11848;DHT22;5983;49.966;8.052;2022-07-22T03:09:31;19.30;99.90
11848;DHT22;5983;49.966;8.052;2022-07-22T03:11:58;19.40;99.90
11848;DHT22;5983;49.966;8.052;2022-07-22T03:14:25;19.40;99.90
11848;DHT22;5983;49.966;8.052;2022-07-22T03:16:51;19.40;99.90
11848;DHT22;5983;49.966;8.052;2022-07-22T03:19:18;19.40;99.90
11848;DHT22;5983;49.966;8.052;2022-07-22T03:21:47;19.40;99.90
11848;DHT22;5983;49.966;8.052;2022-07-22T03:24:13;19.40;99.90
11848;DHT22;5983;49.966;8.052;2022-07-22T03:26:40;19.40;99.90
11848;DHT22;5983;49.966;8.052;2022-07-22T03:29:07;19.40;99.90
11848;DHT22;5983;49.966;8.052;2022-07-22T03:31:34;19.40;99.90
11848;DHT22;5983;49.966;8.052;2022-07-22T03:34:01;19.40;99.90
11848;DHT22;5983;49.966;8.052;2022-07-22T03:36:29;19.50;99.90
11848;DHT22;5983;49.966;8.052;2022-07-22T03:38:57;19.50;99.90
11848;DHT22;5983;49.966;8.052;2022-07-22T03:41:24;19.50;99.90
11848;DHT22;5983;49.966;8.052;2022-07-22T03:43:51;19.50;99.90
11848;DHT22;5983;49.966;8.052;2022-07-22T03:46:18;19.50;99.90
11848;DHT22;5983;49.966;8.052;2022-07-22T03:48:45;19.60;99.90
11848;DHT22;5983;49.966;8.052;2022-07-22T03:51:12;19.60;99.90
11848;DHT22;5983;49.966;8.052;2022-07-22T03:53:39;19.70;99.90
11848;DHT22;5983;49.966;8.052;2022-07-22T03:56:08;19.70;99.90
11848;DHT22;5983;49.966;8.052;2022-07-22T03:58:35;19.70;99.90
11848;DHT22;5983;49.966;8.052;2022-07-22T04:01:02;19.70;99.90
11848;DHT22;5983;49.966;8.052;2022-07-22T04:03:29;19.70;99.90
11848;DHT22;5983;49.966;8.052;2022-07-22T04:05:56;19.70;99.90
11848;DHT22;5983;49.966;8.052;2022-07-22T04:08:24;19.80;99.90
11848;DHT22;5983;49.966;8.052;2022-07-22T04:10:51;19.80;99.90
11848;DHT22;5983;49.966;8.052;2022-07-22T04:13:19;19.80;99.90
11848;DHT22;5983;49.966;8.052;2022-07-22T04:15:46;19.80;99.90
11848;DHT22;5983;49.966;8.052;2022-07-22T04:18:13;19.80;99.90
11848;DHT22;5983;49.966;8.052;2022-07-22T04:20:40;19.80;99.90
11848;DHT22;5983;49.966;8.052;2022-07-22T04:23:07;19.80;99.90
11848;DHT22;5983;49.966;8.052;2022-07-22T04:25:34;19.80;99.90
11848;DHT22;5983;49.966;8.052;2022-07-22T04:28:01;19.80;99.90
11848;DHT22;5983;49.966;8.052;2022-07-22T04:30:29;19.80;99.90
11848;DHT22;5983;49.966;8.052;2022-07-22T04:32:57;19.90;99.90
11848;DHT22;5983;49.966;8.052;2022-07-22T04:35:24;19.90;99.90
11848;DHT22;5983;49.966;8.052;2022-07-22T04:37:54;19.90;99.90
11848;DHT22;5983;49.966;8.052;2022-07-22T04:40:21;20.00;99.90
11848;DHT22;5983;49.966;8.052;2022-07-22T04:42:48;20.00;99.90
11848;DHT22;5983;49.966;8.052;2022-07-22T04:45:15;20.10;99.90
11848;DHT22;5983;49.966;8.052;2022-07-22T04:47:43;20.10;99.90
11848;DHT22;5983;49.966;8.052;2022-07-22T04:50:19;20.10;99.90
11848;DHT22;5983;49.966;8.052;2022-07-22T04:52:57;20.10;99.90
11848;DHT22;5983;49.966;8.052;2022-07-22T04:55:23;20.20;99.90
11848;DHT22;5983;49.966;8.052;2022-07-22T04:57:50;20.20;99.90
11848;DHT22;5983;49.966;8.052;2022-07-22T05:00:17;20.20;99.90
11848;DHT22;5983;49.966;8.052;2022-07-22T05:02:46;20.30;99.90
11848;DHT22;5983;49.966;8.052;2022-07-22T05:05:12;20.30;99.90
11848;DHT22;5983;49.966;8.052;2022-07-22T05:07:39;20.30;99.90
11848;DHT22;5983;49.966;8.052;2022-07-22T05:10:07;20.30;99.90
11848;DHT22;5983;49.966;8.052;2022-07-22T05:12:35;20.40;99.90
11848;DHT22;5983;49.966;8.052;2022-07-22T05:15:03;20.40;99.90
11848;DHT22;5983;49.966;8.052;2022-07-22T05:17:30;20.40;99.90
11848;DHT22;5983;49.966;8.052;2022-07-22T05:19:59;20.50;99.90
11848;DHT22;5983;49.966;8.052;2022-07-22T05:22:28;20.60;99.90
11848;DHT22;5983;49.966;8.052;2022-07-22T05:24:55;20.60;99.90
11848;DHT22;5983;49.966;8.052;2022-07-22T05:27:22;20.70;99.90
11848;DHT22;5983;49.966;8.052;2022-07-22T05:29:49;20.80;99.90
11848;DHT22;5983;49.966;8.052;2022-07-22T05:32:16;20.90;99.90
11848;DHT22;5983;49.966;8.052;2022-07-22T05:34:43;20.90;99.90
11848;DHT22;5983;49.966;8.052;2022-07-22T05:37:12;20.90;99.90
11848;DHT22;5983;49.966;8.052;2022-07-22T05:39:38;21.00;99.90
11848;DHT22;5983;49.966;8.052;2022-07-22T05:42:05;21.00;99.90
11848;DHT22;5983;49.966;8.052;2022-07-22T05:44:33;21.10;99.90
11848;DHT22;5983;49.966;8.052;2022-07-22T05:46:59;21.10;99.90
11848;DHT22;5983;49.966;8.052;2022-07-22T05:49:26;21.20;99.90
11848;DHT22;5983;49.966;8.052;2022-07-22T05:51:56;21.30;99.90
11848;DHT22;5983;49.966;8.052;2022-07-22T05:54:27;21.40;99.90
11848;DHT22;5983;49.966;8.052;2022-07-22T05:56:54;21.50;99.90
11848;DHT22;5983;49.966;8.052;2022-07-22T05:59:21;21.60;99.90
11848;DHT22;5983;49.966;8.052;2022-07-22T06:01:48;21.60;99.90
11848;DHT22;5983;49.966;8.052;2022-07-22T06:04:15;21.70;99.90
11848;DHT22;5983;49.966;8.052;2022-07-22T06:06:42;21.70;99.90
11848;DHT22;5983;49.966;8.052;2022-07-22T06:09:09;21.80;99.90
11848;DHT22;5983;49.966;8.052;2022-07-22T06:11:37;21.70;99.90
11848;DHT22;5983;49.966;8.052;2022-07-22T06:14:04;21.70;99.90
11848;DHT22;5983;49.966;8.052;2022-07-22T06:16:31;21.70;99.90
11848;DHT22;5983;49.966;8.052;2022-07-22T06:18:59;21.80;99.90
11848;DHT22;5983;49.966;8.052;2022-07-22T06:21:26;21.80;99.90
11848;DHT22;5983;49.966;8.052;2022-07-22T06:23:54;21.90;99.90
11848;DHT22;5983;49.966;8.052;2022-07-22T06:26:21;22.00;99.90
11848;DHT22;5983;49.966;8.052;2022-07-22T06:28:49;22.10;99.90
11848;DHT22;5983;49.966;8.052;2022-07-22T06:31:16;22.10;99.90
11848;DHT22;5983;49.966;8.052;2022-07-22T06:33:43;22.20;99.90
11848;DHT22;5983;49.966;8.052;2022-07-22T06:36:10;22.20;99.90
11848;DHT22;5983;49.966;8.052;2022-07-22T06:38:37;22.20;99.90
11848;DHT22;5983;49.966;8.052;2022-07-22T06:41:04;22.20;99.90
11848;DHT22;5983;49.966;8.052;2022-07-22T06:43:31;22.20;99.90
11848;DHT22;5983;49.966;8.052;2022-07-22T06:45:59;22.30;99.90
11848;DHT22;5983;49.966;8.052;2022-07-22T06:48:26;22.30;99.90
11848;DHT22;5983;49.966;8.052;2022-07-22T06:50:53;22.40;99.90
11848;DHT22;5983;49.966;8.052;2022-07-22T06:53:20;22.50;99.90
11848;DHT22;5983;49.966;8.052;2022-07-22T06:55:47;22.40;99.90
11848;DHT22;5983;49.966;8.052;2022-07-22T06:58:14;22.40;99.90
11848;DHT22;5983;49.966;8.052;2022-07-22T07:00:41;22.50;99.90
11848;DHT22;5983;49.966;8.052;2022-07-22T07:03:10;22.60;99.90
11848;DHT22;5983;49.966;8.052;2022-07-22T07:05:37;22.80;99.90
11848;DHT22;5983;49.966;8.052;2022-07-22T07:08:05;22.80;99.90
11848;DHT22;5983;49.966;8.052;2022-07-22T07:10:32;22.90;99.90
11848;DHT22;5983;49.966;8.052;2022-07-22T07:12:59;23.00;99.90
11848;DHT22;5983;49.966;8.052;2022-07-22T07:15:27;23.00;99.90
11848;DHT22;5983;49.966;8.052;2022-07-22T07:17:56;23.20;99.90
11848;DHT22;5983;49.966;8.052;2022-07-22T07:20:25;23.30;99.90
11848;DHT22;5983;49.966;8.052;2022-07-22T07:22:52;23.40;99.90
11848;DHT22;5983;49.966;8.052;2022-07-22T07:25:19;23.50;99.90
11848;DHT22;5983;49.966;8.052;2022-07-22T07:27:47;23.50;99.90
11848;DHT22;5983;49.966;8.052;2022-07-22T07:30:13;23.60;99.90
11848;DHT22;5983;49.966;8.052;2022-07-22T07:32:40;23.70;99.90
11848;DHT22;5983;49.966;8.052;2022-07-22T07:35:08;23.80;99.90
11848;DHT22;5983;49.966;8.052;2022-07-22T07:37:37;23.80;99.90
11848;DHT22;5983;49.966;8.052;2022-07-22T07:40:06;23.90;99.90
11848;DHT22;5983;49.966;8.052;2022-07-22T07:42:34;23.90;99.90
11848;DHT22;5983;49.966;8.052;2022-07-22T07:45:00;23.90;99.90
11848;DHT22;5983;49.966;8.052;2022-07-22T07:47:27;24.00;99.90
11848;DHT22;5983;49.966;8.052;2022-07-22T07:49:54;24.10;99.90
11848;DHT22;5983;49.966;8.052;2022-07-22T07:52:23;24.20;99.90
11848;DHT22;5983;49.966;8.052;2022-07-22T07:54:51;24.30;99.90
11848;DHT22;5983;49.966;8.052;2022-07-22T07:57:18;24.40;99.90
11848;DHT22;5983;49.966;8.052;2022-07-22T07:59:45;24.50;99.90
11848;DHT22;5983;49.966;8.052;2022-07-22T08:02:12;24.60;99.90
11848;DHT22;5983;49.966;8.052;2022-07-22T08:04:39;24.60;99.90
11848;DHT22;5983;49.966;8.052;2022-07-22T08:07:07;24.70;99.90
11848;DHT22;5983;49.966;8.052;2022-07-22T08:09:34;24.80;99.90
11848;DHT22;5983;49.966;8.052;2022-07-22T08:12:04;24.90;99.90
11848;DHT22;5983;49.966;8.052;2022-07-22T08:14:32;24.90;99.90
11848;DHT22;5983;49.966;8.052;2022-07-22T08:17:00;25.00;99.90
11848;DHT22;5983;49.966;8.052;2022-07-22T08:19:28;25.20;99.90
11848;DHT22;5983;49.966;8.052;2022-07-22T08:21:55;25.30;99.90
11848;DHT22;5983;49.966;8.052;2022-07-22T08:24:21;25.30;99.90
11848;DHT22;5983;49.966;8.052;2022-07-22T08:26:48;25.30;99.90
11848;DHT22;5983;49.966;8.052;2022-07-22T08:29:17;25.30;99.90
11848;DHT22;5983;49.966;8.052;2022-07-22T08:31:44;25.30;99.90
11848;DHT22;5983;49.966;8.052;2022-07-22T08:34:11;25.40;99.90
11848;DHT22;5983;49.966;8.052;2022-07-22T08:36:38;25.30;99.90
11848;DHT22;5983;49.966;8.052;2022-07-22T08:39:05;25.30;99.90
11848;DHT22;5983;49.966;8.052;2022-07-22T08:41:35;25.30;99.90
11848;DHT22;5983;49.966;8.052;2022-07-22T08:44:05;25.50;99.90
11848;DHT22;5983;49.966;8.052;2022-07-22T08:46:35;25.70;99.90
11848;DHT22;5983;49.966;8.052;2022-07-22T08:49:03;25.80;99.90
11848;DHT22;5983;49.966;8.052;2022-07-22T08:51:32;25.90;99.90
11848;DHT22;5983;49.966;8.052;2022-07-22T08:53:59;26.00;99.90
11848;DHT22;5983;49.966;8.052;2022-07-22T08:56:26;26.10;99.90
11848;DHT22;5983;49.966;8.052;2022-07-22T08:58:53;26.30;99.90
11848;DHT22;5983;49.966;8.052;2022-07-22T09:01:20;26.40;99.90
11848;DHT22;5983;49.966;8.052;2022-07-22T09:03:50;26.40;99.90
11848;DHT22;5983;49.966;8.052;2022-07-22T09:06:22;26.50;99.90
11848;DHT22;5983;49.966;8.052;2022-07-22T09:08:55;26.50;99.70
11848;DHT22;5983;49.966;8.052;2022-07-22T09:11:24;26.50;99.70
11848;DHT22;5983;49.966;8.052;2022-07-22T09:13:54;26.40;98.80
11848;DHT22;5983;49.966;8.052;2022-07-22T09:16:39;26.20;99.20
11848;DHT22;5983;49.966;8.052;2022-07-22T09:19:09;26.30;99.70
11848;DHT22;5983;49.966;8.052;2022-07-22T09:21:38;26.40;99.90
11848;DHT22;5983;49.966;8.052;2022-07-22T09:24:06;26.60;99.00
11848;DHT22;5983;49.966;8.052;2022-07-22T09:26:35;26.70;99.10
11848;DHT22;5983;49.966;8.052;2022-07-22T09:29:05;26.90;99.00
11848;DHT22;5983;49.966;8.052;2022-07-22T09:31:34;27.10;99.00
11848;DHT22;5983;49.966;8.052;2022-07-22T09:34:03;27.30;98.20
11848;DHT22;5983;49.966;8.052;2022-07-22T09:36:32;27.40;97.70
11848;DHT22;5983;49.966;8.052;2022-07-22T09:39:26;27.50;96.90
11848;DHT22;5983;49.966;8.052;2022-07-22T09:41:57;27.50;95.90
11848;DHT22;5983;49.966;8.052;2022-07-22T09:44:25;27.60;96.30
11848;DHT22;5983;49.966;8.052;2022-07-22T09:46:52;27.70;95.90
11848;DHT22;5983;49.966;8.052;2022-07-22T09:49:31;27.80;95.20
11848;DHT22;5983;49.966;8.052;2022-07-22T09:52:00;27.90;95.20
11848;DHT22;5983;49.966;8.052;2022-07-22T09:54:28;27.80;94.80
11848;DHT22;5983;49.966;8.052;2022-07-22T09:56:56;27.90;95.40
11848;DHT22;5983;49.966;8.052;2022-07-22T09:59:23;28.00;95.60
11848;DHT22;5983;49.966;8.052;2022-07-22T10:01:54;28.20;95.30
11848;DHT22;5983;49.966;8.052;2022-07-22T10:04:27;28.40;94.50
11848;DHT22;5983;49.966;8.052;2022-07-22T10:07:02;28.40;93.60
11848;DHT22;5983;49.966;8.052;2022-07-22T10:09:29;28.50;92.90
11848;DHT22;5983;49.966;8.052;2022-07-22T10:11:57;28.40;92.30
11848;DHT22;5983;49.966;8.052;2022-07-22T10:14:25;28.30;92.10
11848;DHT22;5983;49.966;8.052;2022-07-22T10:16:54;28.40;92.10
11848;DHT22;5983;49.966;8.052;2022-07-22T10:19:21;28.30;92.00
11848;DHT22;5983;49.966;8.052;2022-07-22T10:21:49;28.30;92.20
11848;DHT22;5983;49.966;8.052;2022-07-22T10:24:17;28.40;92.20
11848;DHT22;5983;49.966;8.052;2022-07-22T10:26:49;28.50;92.40
11848;DHT22;5983;49.966;8.052;2022-07-22T10:29:28;28.60;92.10
11848;DHT22;5983;49.966;8.052;2022-07-22T10:32:24;28.70;92.10
11848;DHT22;5983;49.966;8.052;2022-07-22T10:35:24;28.80;91.70
11848;DHT22;5983;49.966;8.052;2022-07-22T10:37:54;29.00;91.70
11848;DHT22;5983;49.966;8.052;2022-07-22T10:40:25;29.10;91.80
11848;DHT22;5983;49.966;8.052;2022-07-22T10:43:11;29.20;91.30
11848;DHT22;5983;49.966;8.052;2022-07-22T10:45:42;29.40;91.00
11848;DHT22;5983;49.966;8.052;2022-07-22T10:48:13;29.40;90.70
11848;DHT22;5983;49.966;8.052;2022-07-22T10:50:44;29.50;90.00
11848;DHT22;5983;49.966;8.052;2022-07-22T10:53:17;29.40;90.10
11848;DHT22;5983;49.966;8.052;2022-07-22T10:56:05;29.50;90.30
11848;DHT22;5983;49.966;8.052;2022-07-22T10:58:42;29.60;89.40
11848;DHT22;5983;49.966;8.052;2022-07-22T11:01:23;29.50;86.50
11848;DHT22;5983;49.966;8.052;2022-07-22T11:03:53;29.50;85.60
11848;DHT22;5983;49.966;8.052;2022-07-22T11:06:27;29.40;85.10
11848;DHT22;5983;49.966;8.052;2022-07-22T11:08:57;29.50;85.40
11848;DHT22;5983;49.966;8.052;2022-07-22T11:11:42;29.50;85.30
11848;DHT22;5983;49.966;8.052;2022-07-22T11:14:15;29.60;85.20
11848;DHT22;5983;49.966;8.052;2022-07-22T11:16:45;29.70;86.00
11848;DHT22;5983;49.966;8.052;2022-07-22T11:19:13;29.70;83.00
11848;DHT22;5983;49.966;8.052;2022-07-22T11:21:41;29.70;82.30
11848;DHT22;5983;49.966;8.052;2022-07-22T11:24:08;29.70;82.70
11848;DHT22;5983;49.966;8.052;2022-07-22T11:26:42;29.90;81.30
11848;DHT22;5983;49.966;8.052;2022-07-22T11:29:15;29.90;79.70
11848;DHT22;5983;49.966;8.052;2022-07-22T11:31:43;29.70;78.20
11848;DHT22;5983;49.966;8.052;2022-07-22T11:34:12;29.60;79.00
11848;DHT22;5983;49.966;8.052;2022-07-22T11:36:42;29.60;78.80
11848;DHT22;5983;49.966;8.052;2022-07-22T11:39:13;29.60;79.00
11848;DHT22;5983;49.966;8.052;2022-07-22T11:41:45;29.50;78.20
11848;DHT22;5983;49.966;8.052;2022-07-22T11:44:12;29.30;77.90
11848;DHT22;5983;49.966;8.052;2022-07-22T11:46:45;29.30;77.90
11848;DHT22;5983;49.966;8.052;2022-07-22T11:49:14;29.20;78.00
11848;DHT22;5983;49.966;8.052;2022-07-22T11:51:43;29.30;79.20
11848;DHT22;5983;49.966;8.052;2022-07-22T11:54:10;29.30;75.80
11848;DHT22;5983;49.966;8.052;2022-07-22T11:56:39;29.20;77.20
11848;DHT22;5983;49.966;8.052;2022-07-22T11:59:11;29.30;76.60
11848;DHT22;5983;49.966;8.052;2022-07-22T12:01:39;29.50;77.90
11848;DHT22;5983;49.966;8.052;2022-07-22T12:04:08;29.80;78.40
11848;DHT22;5983;49.966;8.052;2022-07-22T12:06:38;30.10;78.00
11848;DHT22;5983;49.966;8.052;2022-07-22T12:09:08;30.20;77.20
11848;DHT22;5983;49.966;8.052;2022-07-22T12:11:37;30.30;77.10
11848;DHT22;5983;49.966;8.052;2022-07-22T12:14:08;30.40;76.60
11848;DHT22;5983;49.966;8.052;2022-07-22T12:16:38;30.60;75.60
11848;DHT22;5983;49.966;8.052;2022-07-22T12:19:07;30.70;75.30
11848;DHT22;5983;49.966;8.052;2022-07-22T12:21:37;30.80;75.40
11848;DHT22;5983;49.966;8.052;2022-07-22T12:24:25;31.00;75.60
11848;DHT22;5983;49.966;8.052;2022-07-22T12:26:55;31.00;73.50
11848;DHT22;5983;49.966;8.052;2022-07-22T12:29:26;31.00;73.80
11848;DHT22;5983;49.966;8.052;2022-07-22T12:31:57;30.90;72.60
11848;DHT22;5983;49.966;8.052;2022-07-22T12:34:30;30.90;73.50
11848;DHT22;5983;49.966;8.052;2022-07-22T12:36:59;30.90;73.80
11848;DHT22;5983;49.966;8.052;2022-07-22T12:39:29;30.90;71.40
11848;DHT22;5983;49.966;8.052;2022-07-22T12:41:56;31.00;72.80
11848;DHT22;5983;49.966;8.052;2022-07-22T12:44:26;31.20;70.50
11848;DHT22;5983;49.966;8.052;2022-07-22T12:46:55;31.10;70.00
11848;DHT22;5983;49.966;8.052;2022-07-22T12:49:25;31.10;70.80
11848;DHT22;5983;49.966;8.052;2022-07-22T12:52:05;31.20;69.60
11848;DHT22;5983;49.966;8.052;2022-07-22T12:54:33;31.20;70.00
11848;DHT22;5983;49.966;8.052;2022-07-22T12:57:00;31.30;70.60
11848;DHT22;5983;49.966;8.052;2022-07-22T12:59:29;31.30;69.70
11848;DHT22;5983;49.966;8.052;2022-07-22T13:01:56;31.40;69.90
11848;DHT22;5983;49.966;8.052;2022-07-22T13:04:24;31.40;68.20
11848;DHT22;5983;49.966;8.052;2022-07-22T13:06:51;31.30;68.70
11848;DHT22;5983;49.966;8.052;2022-07-22T13:09:18;31.20;69.40
11848;DHT22;5983;49.966;8.052;2022-07-22T13:11:45;31.20;69.00
11848;DHT22;5983;49.966;8.052;2022-07-22T13:14:13;31.10;67.90
11848;DHT22;5983;49.966;8.052;2022-07-22T13:16:42;30.90;69.00
11848;DHT22;5983;49.966;8.052;2022-07-22T13:19:09;30.90;69.20
11848;DHT22;5983;49.966;8.052;2022-07-22T13:21:36;31.00;69.30
11848;DHT22;5983;49.966;8.052;2022-07-22T13:24:03;30.90;69.40
11848;DHT22;5983;49.966;8.052;2022-07-22T13:26:31;30.90;69.50
11848;DHT22;5983;49.966;8.052;2022-07-22T13:28:58;30.80;70.40
11848;DHT22;5983;49.966;8.052;2022-07-22T13:31:27;30.70;69.80
11848;DHT22;5983;49.966;8.052;2022-07-22T13:33:58;30.60;69.70
11848;DHT22;5983;49.966;8.052;2022-07-22T13:36:26;30.30;69.60
11848;DHT22;5983;49.966;8.052;2022-07-22T13:38:53;30.10;70.10
11848;DHT22;5983;49.966;8.052;2022-07-22T13:41:21;30.20;70.00
11848;DHT22;5983;49.966;8.052;2022-07-22T13:43:49;30.30;70.50
11848;DHT22;5983;49.966;8.052;2022-07-22T13:46:17;30.40;70.40
11848;DHT22;5983;49.966;8.052;2022-07-22T13:48:45;30.50;69.30
11848;DHT22;5983;49.966;8.052;2022-07-22T13:51:13;30.50;68.50
11848;DHT22;5983;49.966;8.052;2022-07-22T13:53:41;30.40;68.00
11848;DHT22;5983;49.966;8.052;2022-07-22T13:56:09;30.40;68.80
11848;DHT22;5983;49.966;8.052;2022-07-22T13:58:38;30.40;68.90
11848;DHT22;5983;49.966;8.052;2022-07-22T14:01:07;30.40;69.40
11848;DHT22;5983;49.966;8.052;2022-07-22T14:03:35;30.40;69.00
11848;DHT22;5983;49.966;8.052;2022-07-22T14:06:04;30.40;69.40
11848;DHT22;5983;49.966;8.052;2022-07-22T14:08:33;30.50;69.60
11848;DHT22;5983;49.966;8.052;2022-07-22T14:11:00;30.60;69.80
11848;DHT22;5983;49.966;8.052;2022-07-22T14:13:27;30.70;69.50
11848;DHT22;5983;49.966;8.052;2022-07-22T14:15:54;30.60;68.40
11848;DHT22;5983;49.966;8.052;2022-07-22T14:18:21;30.60;68.70
11848;DHT22;5983;49.966;8.052;2022-07-22T14:20:49;30.70;69.20
11848;DHT22;5983;49.966;8.052;2022-07-22T14:23:16;30.70;69.40
11848;DHT22;5983;49.966;8.052;2022-07-22T14:25:50;30.80;70.10
11848;DHT22;5983;49.966;8.052;2022-07-22T14:28:16;30.80;69.40
11848;DHT22;5983;49.966;8.052;2022-07-22T14:30:43;30.70;68.70
11848;DHT22;5983;49.966;8.052;2022-07-22T14:33:10;30.60;67.80
11848;DHT22;5983;49.966;8.052;2022-07-22T14:35:37;30.40;66.90
11848;DHT22;5983;49.966;8.052;2022-07-22T14:38:04;30.30;67.00
11848;DHT22;5983;49.966;8.052;2022-07-22T14:40:31;30.20;67.40
11848;DHT22;5983;49.966;8.052;2022-07-22T14:42:59;30.20;67.40
11848;DHT22;5983;49.966;8.052;2022-07-22T14:45:26;30.20;67.70
11848;DHT22;5983;49.966;8.052;2022-07-22T14:47:53;30.20;66.90
11848;DHT22;5983;49.966;8.052;2022-07-22T14:50:20;30.20;67.00
11848;DHT22;5983;49.966;8.052;2022-07-22T14:52:47;30.10;67.60
11848;DHT22;5983;49.966;8.052;2022-07-22T14:55:14;30.10;68.00
11848;DHT22;5983;49.966;8.052;2022-07-22T14:57:41;30.00;68.10
11848;DHT22;5983;49.966;8.052;2022-07-22T15:00:10;30.10;68.00
11848;DHT22;5983;49.966;8.052;2022-07-22T15:02:38;30.10;67.30
11848;DHT22;5983;49.966;8.052;2022-07-22T15:05:05;30.10;67.00
11848;DHT22;5983;49.966;8.052;2022-07-22T15:07:33;30.10;67.50
11848;DHT22;5983;49.966;8.052;2022-07-22T15:10:00;30.10;67.80
11848;DHT22;5983;49.966;8.052;2022-07-22T15:12:27;30.00;67.70
11848;DHT22;5983;49.966;8.052;2022-07-22T15:14:53;30.00;68.50
11848;DHT22;5983;49.966;8.052;2022-07-22T15:17:22;30.00;68.30
11848;DHT22;5983;49.966;8.052;2022-07-22T15:19:48;30.00;68.20
11848;DHT22;5983;49.966;8.052;2022-07-22T15:22:15;30.00;68.30
11848;DHT22;5983;49.966;8.052;2022-07-22T15:24:43;30.10;68.50
11848;DHT22;5983;49.966;8.052;2022-07-22T15:27:10;30.10;68.20
11848;DHT22;5983;49.966;8.052;2022-07-22T15:29:36;30.10;67.30
11848;DHT22;5983;49.966;8.052;2022-07-22T15:32:04;30.20;66.90
11848;DHT22;5983;49.966;8.052;2022-07-22T15:34:32;30.10;67.30
11848;DHT22;5983;49.966;8.052;2022-07-22T15:36:59;30.10;66.50
11848;DHT22;5983;49.966;8.052;2022-07-22T15:39:26;30.10;66.40
11848;DHT22;5983;49.966;8.052;2022-07-22T15:41:53;30.10;65.80
11848;DHT22;5983;49.966;8.052;2022-07-22T15:44:21;30.10;66.30
11848;DHT22;5983;49.966;8.052;2022-07-22T15:46:48;30.10;66.80
11848;DHT22;5983;49.966;8.052;2022-07-22T15:49:15;30.10;66.80
11848;DHT22;5983;49.966;8.052;2022-07-22T15:51:44;30.00;67.30
11848;DHT22;5983;49.966;8.052;2022-07-22T15:54:11;30.00;67.60